sensor_id;sensor_type;location;lat;lon;timestamp;temperature;humidity
14741;DHT22;7462;53.530;9.414;2023-06-04T00:00:08;13.40;99.90
14741;DHT22;7462;53.530;9.414;2023-06-04T00:02:37;13.30;99.90
14741;DHT22;7462;53.530;9.414;2023-06-04T00:05:06;13.30;99.90
14741;DHT22;7462;53.530;9.414;2023-06-04T00:07:35;13.30;99.90
14741;DHT22;7462;53.530;9.414;2023-06-04T00:10:04;13.20;99.90
14741;DHT22;7462;53.530;9.414;2023-06-04T00:12:32;13.20;99.90
14741;DHT22;7462;53.530;9.414;2023-06-04T00:15:00;13.20;99.90
14741;DHT22;7462;53.530;9.414;2023-06-04T00:17:28;13.10;99.90
14741;DHT22;7462;53.530;9.414;2023-06-04T00:19:56;13.20;99.90
14741;DHT22;7462;53.530;9.414;2023-06-04T00:22:24;13.20;99.90
14741;DHT22;7462;53.530;9.414;2023-06-04T00:24:54;13.30;99.90
14741;DHT22;7462;53.530;9.414;2023-06-04T00:27:22;13.30;99.90
14741;DHT22;7462;53.530;9.414;2023-06-04T00:29:50;13.30;99.90
14741;DHT22;7462;53.530;9.414;2023-06-04T00:32:18;13.30;99.90
14741;DHT22;7462;53.530;9.414;2023-06-04T00:34:50;13.30;99.90
14741;DHT22;7462;53.530;9.414;2023-06-04T00:37:19;13.30;99.90
14741;DHT22;7462;53.530;9.414;2023-06-04T00:39:47;13.40;99.90
14741;DHT22;7462;53.530;9.414;2023-06-04T00:42:16;13.30;99.90
14741;DHT22;7462;53.530;9.414;2023-06-04T00:44:44;13.30;99.90
14741;DHT22;7462;53.530;9.414;2023-06-04T00:47:15;13.30;99.90
14741;DHT22;7462;53.530;9.414;2023-06-04T00:49:43;13.30;99.90
14741;DHT22;7462;53.530;9.414;2023-06-04T00:52:13;13.30;99.90
14741;DHT22;7462;53.530;9.414;2023-06-04T00:54:42;13.40;99.90
14741;DHT22;7462;53.530;9.414;2023-06-04T00:57:10;13.40;99.90
14741;DHT22;7462;53.530;9.414;2023-06-04T00:59:40;13.50;99.90
14741;DHT22;7462;53.530;9.414;2023-06-04T01:02:11;13.50;99.90
14741;DHT22;7462;53.530;9.414;2023-06-04T01:04:45;13.40;99.90
14741;DHT22;7462;53.530;9.414;2023-06-04T01:07:14;13.10;99.90
14741;DHT22;7462;53.530;9.414;2023-06-04T01:09:44;13.00;99.90
14741;DHT22;7462;53.530;9.414;2023-06-04T01:12:13;13.10;99.90
14741;DHT22;7462;53.530;9.414;2023-06-04T01:14:43;13.00;99.90
14741;DHT22;7462;53.530;9.414;2023-06-04T01:17:15;12.90;99.90
14741;DHT22;7462;53.530;9.414;2023-06-04T01:19:58;13.00;99.90
14741;DHT22;7462;53.530;9.414;2023-06-04T01:22:38;13.10;99.90
14741;DHT22;7462;53.530;9.414;2023-06-04T01:25:12;12.90;99.90
14741;DHT22;7462;53.530;9.414;2023-06-04T01:27:48;12.90;99.90
14741;DHT22;7462;53.530;9.414;2023-06-04T01:30:20;13.00;99.90
14741;DHT22;7462;53.530;9.414;2023-06-04T01:32:48;13.00;99.90
14741;DHT22;7462;53.530;9.414;2023-06-04T01:35:16;12.90;99.90
14741;DHT22;7462;53.530;9.414;2023-06-04T01:37:44;12.90;99.90
14741;DHT22;7462;53.530;9.414;2023-06-04T01:40:13;12.50;99.90
14741;DHT22;7462;53.530;9.414;2023-06-04T01:42:41;12.70;99.90
14741;DHT22;7462;53.530;9.414;2023-06-04T01:45:10;12.80;99.90
14741;DHT22;7462;53.530;9.414;2023-06-04T01:47:39;12.80;99.90
14741;DHT22;7462;53.530;9.414;2023-06-04T01:50:08;12.90;99.90
14741;DHT22;7462;53.530;9.414;2023-06-04T01:52:37;13.00;99.90
14741;DHT22;7462;53.530;9.414;2023-06-04T01:55:05;12.90;99.90
14741;DHT22;7462;53.530;9.414;2023-06-04T01:57:34;12.70;99.90
14741;DHT22;7462;53.530;9.414;2023-06-04T02:00:03;12.70;99.90
14741;DHT22;7462;53.530;9.414;2023-06-04T02:02:41;12.50;99.90
14741;DHT22;7462;53.530;9.414;2023-06-04T02:05:10;12.40;99.90
14741;DHT22;7462;53.530;9.414;2023-06-04T02:07:39;12.20;99.90
14741;DHT22;7462;53.530;9.414;2023-06-04T02:10:08;12.20;99.90
14741;DHT22;7462;53.530;9.414;2023-06-04T02:12:39;12.10;99.90
14741;DHT22;7462;53.530;9.414;2023-06-04T02:15:11;12.00;99.90
14741;DHT22;7462;53.530;9.414;2023-06-04T02:17:42;11.80;99.90
14741;DHT22;7462;53.530;9.414;2023-06-04T02:20:13;11.60;99.90
14741;DHT22;7462;53.530;9.414;2023-06-04T02:22:42;11.60;99.90
14741;DHT22;7462;53.530;9.414;2023-06-04T02:25:10;11.60;99.90
14741;DHT22;7462;53.530;9.414;2023-06-04T02:27:38;11.50;99.90
14741;DHT22;7462;53.530;9.414;2023-06-04T02:30:08;11.40;99.90
14741;DHT22;7462;53.530;9.414;2023-06-04T02:32:36;11.40;99.90
14741;DHT22;7462;53.530;9.414;2023-06-04T02:35:06;11.30;99.90
14741;DHT22;7462;53.530;9.414;2023-06-04T02:37:34;11.30;99.90
14741;DHT22;7462;53.530;9.414;2023-06-04T02:40:02;11.30;99.90
14741;DHT22;7462;53.530;9.414;2023-06-04T02:42:31;11.30;99.90
14741;DHT22;7462;53.530;9.414;2023-06-04T02:44:59;11.30;99.90
14741;DHT22;7462;53.530;9.414;2023-06-04T02:47:27;11.20;99.90
14741;DHT22;7462;53.530;9.414;2023-06-04T02:49:55;11.30;99.90
14741;DHT22;7462;53.530;9.414;2023-06-04T02:52:24;11.30;99.90
14741;DHT22;7462;53.530;9.414;2023-06-04T02:54:53;11.10;99.90
14741;DHT22;7462;53.530;9.414;2023-06-04T02:57:23;11.00;99.90
14741;DHT22;7462;53.530;9.414;2023-06-04T02:59:51;10.90;99.90
14741;DHT22;7462;53.530;9.414;2023-06-04T03:02:20;10.80;99.90
14741;DHT22;7462;53.530;9.414;2023-06-04T03:04:48;10.80;99.90
14741;DHT22;7462;53.530;9.414;2023-06-04T03:07:17;10.80;99.90
14741;DHT22;7462;53.530;9.414;2023-06-04T03:09:49;10.80;99.90
14741;DHT22;7462;53.530;9.414;2023-06-04T03:12:17;10.80;99.90
14741;DHT22;7462;53.530;9.414;2023-06-04T03:14:45;10.80;99.90
14741;DHT22;7462;53.530;9.414;2023-06-04T03:17:13;10.80;99.90
14741;DHT22;7462;53.530;9.414;2023-06-04T03:19:42;10.70;99.90
14741;DHT22;7462;53.530;9.414;2023-06-04T03:22:10;10.70;99.90
14741;DHT22;7462;53.530;9.414;2023-06-04T03:24:39;10.80;99.90
14741;DHT22;7462;53.530;9.414;2023-06-04T03:27:10;10.80;99.90
14741;DHT22;7462;53.530;9.414;2023-06-04T03:29:40;10.80;99.90
14741;DHT22;7462;53.530;9.414;2023-06-04T03:32:10;10.90;99.90
14741;DHT22;7462;53.530;9.414;2023-06-04T03:34:39;10.80;99.90
14741;DHT22;7462;53.530;9.414;2023-06-04T03:37:07;10.70;99.90
14741;DHT22;7462;53.530;9.414;2023-06-04T03:39:35;10.80;99.90
14741;DHT22;7462;53.530;9.414;2023-06-04T03:42:06;10.80;99.90
14741;DHT22;7462;53.530;9.414;2023-06-04T03:44:35;10.70;99.90
14741;DHT22;7462;53.530;9.414;2023-06-04T03:47:04;10.60;99.90
14741;DHT22;7462;53.530;9.414;2023-06-04T03:49:32;10.70;99.90
14741;DHT22;7462;53.530;9.414;2023-06-04T03:52:00;10.70;99.90
14741;DHT22;7462;53.530;9.414;2023-06-04T03:54:29;10.80;99.90
14741;DHT22;7462;53.530;9.414;2023-06-04T03:56:57;10.70;99.90
14741;DHT22;7462;53.530;9.414;2023-06-04T03:59:25;10.70;99.90
14741;DHT22;7462;53.530;9.414;2023-06-04T04:01:55;10.70;99.90
14741;DHT22;7462;53.530;9.414;2023-06-04T04:04:23;10.80;99.90
14741;DHT22;7462;53.530;9.414;2023-06-04T04:06:52;10.80;99.90
14741;DHT22;7462;53.530;9.414;2023-06-04T04:09:20;10.90;99.90
14741;DHT22;7462;53.530;9.414;2023-06-04T04:11:49;10.90;99.90
14741;DHT22;7462;53.530;9.414;2023-06-04T04:14:17;10.90;99.90
14741;DHT22;7462;53.530;9.414;2023-06-04T04:16:46;11.00;99.90
14741;DHT22;7462;53.530;9.414;2023-06-04T04:19:16;11.10;99.90
14741;DHT22;7462;53.530;9.414;2023-06-04T04:21:44;11.30;99.90
14741;DHT22;7462;53.530;9.414;2023-06-04T04:24:22;11.30;99.90
14741;DHT22;7462;53.530;9.414;2023-06-04T04:26:52;11.40;99.90
14741;DHT22;7462;53.530;9.414;2023-06-04T04:29:21;11.50;99.90
14741;DHT22;7462;53.530;9.414;2023-06-04T04:31:52;11.50;99.90
14741;DHT22;7462;53.530;9.414;2023-06-04T04:34:25;11.60;99.90
14741;DHT22;7462;53.530;9.414;2023-06-04T04:36:53;11.70;99.90
14741;DHT22;7462;53.530;9.414;2023-06-04T04:39:24;11.70;99.90
14741;DHT22;7462;53.530;9.414;2023-06-04T04:41:56;11.80;99.90
14741;DHT22;7462;53.530;9.414;2023-06-04T04:44:24;12.00;99.90
14741;DHT22;7462;53.530;9.414;2023-06-04T04:46:54;12.10;99.90
14741;DHT22;7462;53.530;9.414;2023-06-04T04:49:23;12.20;99.90
14741;DHT22;7462;53.530;9.414;2023-06-04T04:51:52;12.30;99.90
14741;DHT22;7462;53.530;9.414;2023-06-04T04:54:20;12.40;99.90
14741;DHT22;7462;53.530;9.414;2023-06-04T04:56:48;12.50;99.90
14741;DHT22;7462;53.530;9.414;2023-06-04T04:59:36;12.60;99.90
14741;DHT22;7462;53.530;9.414;2023-06-04T05:02:05;12.70;99.90
14741;DHT22;7462;53.530;9.414;2023-06-04T05:04:35;12.80;99.90
14741;DHT22;7462;53.530;9.414;2023-06-04T05:07:04;13.00;99.90
14741;DHT22;7462;53.530;9.414;2023-06-04T05:09:32;13.20;99.90
14741;DHT22;7462;53.530;9.414;2023-06-04T05:12:00;13.40;99.90
14741;DHT22;7462;53.530;9.414;2023-06-04T05:14:30;13.50;99.90
14741;DHT22;7462;53.530;9.414;2023-06-04T05:16:59;13.50;99.90
14741;DHT22;7462;53.530;9.414;2023-06-04T05:19:27;13.60;99.90
14741;DHT22;7462;53.530;9.414;2023-06-04T05:21:56;13.70;99.90
14741;DHT22;7462;53.530;9.414;2023-06-04T05:24:24;13.90;99.90
14741;DHT22;7462;53.530;9.414;2023-06-04T05:26:53;14.00;99.90
14741;DHT22;7462;53.530;9.414;2023-06-04T05:29:22;14.10;99.90
14741;DHT22;7462;53.530;9.414;2023-06-04T05:31:50;14.40;99.90
14741;DHT22;7462;53.530;9.414;2023-06-04T05:34:20;14.60;99.90
14741;DHT22;7462;53.530;9.414;2023-06-04T05:36:49;14.80;99.90
14741;DHT22;7462;53.530;9.414;2023-06-04T05:39:21;15.00;99.90
14741;DHT22;7462;53.530;9.414;2023-06-04T05:42:09;14.90;99.90
14741;DHT22;7462;53.530;9.414;2023-06-04T05:44:37;15.00;99.90
14741;DHT22;7462;53.530;9.414;2023-06-04T05:47:07;15.10;99.90
14741;DHT22;7462;53.530;9.414;2023-06-04T05:49:35;15.30;99.90
14741;DHT22;7462;53.530;9.414;2023-06-04T05:52:04;15.40;99.90
14741;DHT22;7462;53.530;9.414;2023-06-04T05:54:34;15.40;99.90
14741;DHT22;7462;53.530;9.414;2023-06-04T05:57:05;15.70;99.90
14741;DHT22;7462;53.530;9.414;2023-06-04T05:59:33;16.00;99.90
14741;DHT22;7462;53.530;9.414;2023-06-04T06:02:04;16.20;99.90
14741;DHT22;7462;53.530;9.414;2023-06-04T06:04:33;16.20;99.90
14741;DHT22;7462;53.530;9.414;2023-06-04T06:07:01;16.30;99.90
14741;DHT22;7462;53.530;9.414;2023-06-04T06:09:29;16.30;99.90
14741;DHT22;7462;53.530;9.414;2023-06-04T06:11:59;16.50;99.90
14741;DHT22;7462;53.530;9.414;2023-06-04T06:14:28;16.90;99.90
14741;DHT22;7462;53.530;9.414;2023-06-04T06:16:57;17.00;99.90
14741;DHT22;7462;53.530;9.414;2023-06-04T06:19:26;16.90;99.90
14741;DHT22;7462;53.530;9.414;2023-06-04T06:21:54;17.10;99.90
14741;DHT22;7462;53.530;9.414;2023-06-04T06:24:22;17.10;99.90
14741;DHT22;7462;53.530;9.414;2023-06-04T06:26:51;17.40;99.90
14741;DHT22;7462;53.530;9.414;2023-06-04T06:29:20;17.30;99.90
14741;DHT22;7462;53.530;9.414;2023-06-04T06:31:50;17.20;99.90
14741;DHT22;7462;53.530;9.414;2023-06-04T06:34:18;17.40;99.90
14741;DHT22;7462;53.530;9.414;2023-06-04T06:36:48;17.70;99.90
14741;DHT22;7462;53.530;9.414;2023-06-04T06:39:16;18.00;99.90
14741;DHT22;7462;53.530;9.414;2023-06-04T06:41:45;18.10;99.90
14741;DHT22;7462;53.530;9.414;2023-06-04T06:44:19;18.40;99.90
14741;DHT22;7462;53.530;9.414;2023-06-04T06:46:47;18.60;99.90
14741;DHT22;7462;53.530;9.414;2023-06-04T06:49:16;18.50;99.90
14741;DHT22;7462;53.530;9.414;2023-06-04T06:51:44;18.50;99.90
14741;DHT22;7462;53.530;9.414;2023-06-04T06:54:14;18.70;99.90
14741;DHT22;7462;53.530;9.414;2023-06-04T06:56:43;19.00;99.90
14741;DHT22;7462;53.530;9.414;2023-06-04T06:59:11;19.30;99.90
14741;DHT22;7462;53.530;9.414;2023-06-04T07:01:40;19.40;99.90
14741;DHT22;7462;53.530;9.414;2023-06-04T07:04:08;19.30;99.90
14741;DHT22;7462;53.530;9.414;2023-06-04T07:06:36;19.40;99.90
14741;DHT22;7462;53.530;9.414;2023-06-04T07:09:06;19.60;99.90
14741;DHT22;7462;53.530;9.414;2023-06-04T07:11:34;19.80;99.90
14741;DHT22;7462;53.530;9.414;2023-06-04T07:14:02;19.90;99.90
14741;DHT22;7462;53.530;9.414;2023-06-04T07:16:30;20.00;99.90
14741;DHT22;7462;53.530;9.414;2023-06-04T07:19:01;20.30;99.90
14741;DHT22;7462;53.530;9.414;2023-06-04T07:21:29;20.50;99.90
14741;DHT22;7462;53.530;9.414;2023-06-04T07:23:57;20.70;99.90
14741;DHT22;7462;53.530;9.414;2023-06-04T07:26:25;20.90;99.90
14741;DHT22;7462;53.530;9.414;2023-06-04T07:28:59;20.90;99.90
14741;DHT22;7462;53.530;9.414;2023-06-04T07:31:27;21.10;99.90
14741;DHT22;7462;53.530;9.414;2023-06-04T07:33:55;21.30;99.90
14741;DHT22;7462;53.530;9.414;2023-06-04T07:36:25;21.20;99.90
14741;DHT22;7462;53.530;9.414;2023-06-04T07:38:53;21.00;99.90
14741;DHT22;7462;53.530;9.414;2023-06-04T07:41:21;21.20;99.90
14741;DHT22;7462;53.530;9.414;2023-06-04T07:43:49;21.40;99.90
14741;DHT22;7462;53.530;9.414;2023-06-04T07:46:17;21.70;99.90
14741;DHT22;7462;53.530;9.414;2023-06-04T07:48:46;21.80;99.90
14741;DHT22;7462;53.530;9.414;2023-06-04T07:51:14;22.10;99.90
14741;DHT22;7462;53.530;9.414;2023-06-04T07:53:43;22.30;99.90
14741;DHT22;7462;53.530;9.414;2023-06-04T07:56:11;22.30;99.90
14741;DHT22;7462;53.530;9.414;2023-06-04T07:58:39;22.50;99.90
14741;DHT22;7462;53.530;9.414;2023-06-04T08:01:08;22.40;99.90
14741;DHT22;7462;53.530;9.414;2023-06-04T08:03:36;22.50;99.90
14741;DHT22;7462;53.530;9.414;2023-06-04T08:06:05;22.60;99.90
14741;DHT22;7462;53.530;9.414;2023-06-04T08:08:33;22.80;99.90
14741;DHT22;7462;53.530;9.414;2023-06-04T08:11:02;22.90;99.90
14741;DHT22;7462;53.530;9.414;2023-06-04T08:13:31;23.10;99.90
14741;DHT22;7462;53.530;9.414;2023-06-04T08:15:59;23.20;99.90
14741;DHT22;7462;53.530;9.414;2023-06-04T08:18:27;23.50;99.90
14741;DHT22;7462;53.530;9.414;2023-06-04T08:20:55;23.40;99.90
14741;DHT22;7462;53.530;9.414;2023-06-04T08:23:23;23.30;99.90
14741;DHT22;7462;53.530;9.414;2023-06-04T08:25:51;23.60;99.90
14741;DHT22;7462;53.530;9.414;2023-06-04T08:28:21;24.10;99.90
14741;DHT22;7462;53.530;9.414;2023-06-04T08:30:49;24.40;99.90
14741;DHT22;7462;53.530;9.414;2023-06-04T08:33:17;24.20;99.90
14741;DHT22;7462;53.530;9.414;2023-06-04T08:35:45;23.90;99.90
14741;DHT22;7462;53.530;9.414;2023-06-04T08:38:13;24.00;99.90
14741;DHT22;7462;53.530;9.414;2023-06-04T08:40:41;23.90;99.90
14741;DHT22;7462;53.530;9.414;2023-06-04T08:43:10;23.90;99.90
14741;DHT22;7462;53.530;9.414;2023-06-04T08:45:40;24.50;99.90
14741;DHT22;7462;53.530;9.414;2023-06-04T08:48:11;24.20;99.90
14741;DHT22;7462;53.530;9.414;2023-06-04T08:50:40;23.80;99.90
14741;DHT22;7462;53.530;9.414;2023-06-04T08:53:11;23.90;99.90
14741;DHT22;7462;53.530;9.414;2023-06-04T08:55:42;24.10;99.90
14741;DHT22;7462;53.530;9.414;2023-06-04T08:58:10;24.40;99.90
14741;DHT22;7462;53.530;9.414;2023-06-04T09:00:41;25.00;99.80
14741;DHT22;7462;53.530;9.414;2023-06-04T09:03:09;25.20;97.90
14741;DHT22;7462;53.530;9.414;2023-06-04T09:05:39;25.60;98.40
14741;DHT22;7462;53.530;9.414;2023-06-04T09:08:11;25.60;98.60
14741;DHT22;7462;53.530;9.414;2023-06-04T09:10:41;25.30;97.70
14741;DHT22;7462;53.530;9.414;2023-06-04T09:13:10;25.20;98.80
14741;DHT22;7462;53.530;9.414;2023-06-04T09:15:38;25.90;98.70
14741;DHT22;7462;53.530;9.414;2023-06-04T09:18:08;26.00;98.50
14741;DHT22;7462;53.530;9.414;2023-06-04T09:20:36;25.50;98.00
14741;DHT22;7462;53.530;9.414;2023-06-04T09:23:12;25.50;99.20
14741;DHT22;7462;53.530;9.414;2023-06-04T09:25:42;25.60;97.20
14741;DHT22;7462;53.530;9.414;2023-06-04T09:28:11;25.50;98.10
14741;DHT22;7462;53.530;9.414;2023-06-04T09:30:50;25.60;97.60
14741;DHT22;7462;53.530;9.414;2023-06-04T09:33:20;26.40;95.80
14741;DHT22;7462;53.530;9.414;2023-06-04T09:35:53;26.20;95.70
14741;DHT22;7462;53.530;9.414;2023-06-04T09:38:22;26.20;97.20
14741;DHT22;7462;53.530;9.414;2023-06-04T09:40:50;26.70;97.70
14741;DHT22;7462;53.530;9.414;2023-06-04T09:43:22;26.90;95.20
14741;DHT22;7462;53.530;9.414;2023-06-04T09:45:50;27.10;95.80
14741;DHT22;7462;53.530;9.414;2023-06-04T09:48:21;27.60;95.90
14741;DHT22;7462;53.530;9.414;2023-06-04T09:50:49;27.50;94.60
14741;DHT22;7462;53.530;9.414;2023-06-04T09:53:19;27.60;95.20
14741;DHT22;7462;53.530;9.414;2023-06-04T09:55:57;27.60;95.70
14741;DHT22;7462;53.530;9.414;2023-06-04T09:58:26;27.70;94.90
14741;DHT22;7462;53.530;9.414;2023-06-04T10:00:56;27.60;95.50
14741;DHT22;7462;53.530;9.414;2023-06-04T10:03:30;27.70;94.10
14741;DHT22;7462;53.530;9.414;2023-06-04T10:06:03;27.50;93.70
14741;DHT22;7462;53.530;9.414;2023-06-04T10:08:34;27.50;94.50
14741;DHT22;7462;53.530;9.414;2023-06-04T10:11:03;27.40;93.40
14741;DHT22;7462;53.530;9.414;2023-06-04T10:13:38;27.70;94.70
14741;DHT22;7462;53.530;9.414;2023-06-04T10:16:11;27.80;93.60
14741;DHT22;7462;53.530;9.414;2023-06-04T10:18:53;27.60;92.40
14741;DHT22;7462;53.530;9.414;2023-06-04T10:21:23;27.30;93.20
14741;DHT22;7462;53.530;9.414;2023-06-04T10:23:51;27.50;93.90
14741;DHT22;7462;53.530;9.414;2023-06-04T10:26:20;27.30;93.30
14741;DHT22;7462;53.530;9.414;2023-06-04T10:28:48;27.90;93.40
14741;DHT22;7462;53.530;9.414;2023-06-04T10:31:17;28.20;93.30
14741;DHT22;7462;53.530;9.414;2023-06-04T10:33:45;28.00;92.00
14741;DHT22;7462;53.530;9.414;2023-06-04T10:36:19;28.00;92.60
14741;DHT22;7462;53.530;9.414;2023-06-04T10:38:50;28.20;91.50
14741;DHT22;7462;53.530;9.414;2023-06-04T10:41:22;27.80;91.20
14741;DHT22;7462;53.530;9.414;2023-06-04T10:44:00;27.70;92.10
14741;DHT22;7462;53.530;9.414;2023-06-04T10:46:38;28.00;92.30
14741;DHT22;7462;53.530;9.414;2023-06-04T10:49:09;28.50;91.90
14741;DHT22;7462;53.530;9.414;2023-06-04T10:51:39;28.60;91.70
14741;DHT22;7462;53.530;9.414;2023-06-04T10:54:07;28.60;90.20
14741;DHT22;7462;53.530;9.414;2023-06-04T10:56:36;28.20;90.00
14741;DHT22;7462;53.530;9.414;2023-06-04T10:59:14;27.80;89.10
14741;DHT22;7462;53.530;9.414;2023-06-04T11:01:42;27.70;89.80
14741;DHT22;7462;53.530;9.414;2023-06-04T11:04:20;27.60;90.40
14741;DHT22;7462;53.530;9.414;2023-06-04T11:07:00;27.80;90.10
14741;DHT22;7462;53.530;9.414;2023-06-04T11:09:35;28.10;90.30
14741;DHT22;7462;53.530;9.414;2023-06-04T11:12:05;28.50;86.50
14741;DHT22;7462;53.530;9.414;2023-06-04T11:14:34;28.80;88.80
14741;DHT22;7462;53.530;9.414;2023-06-04T11:17:11;29.10;87.70
14741;DHT22;7462;53.530;9.414;2023-06-04T11:19:39;29.40;87.30
14741;DHT22;7462;53.530;9.414;2023-06-04T11:22:11;29.60;86.50
14741;DHT22;7462;53.530;9.414;2023-06-04T11:24:40;29.30;85.30
14741;DHT22;7462;53.530;9.414;2023-06-04T11:27:08;28.90;83.70
14741;DHT22;7462;53.530;9.414;2023-06-04T11:29:51;28.20;84.20
14741;DHT22;7462;53.530;9.414;2023-06-04T11:32:23;28.40;88.60
14741;DHT22;7462;53.530;9.414;2023-06-04T11:34:51;28.90;85.50
14741;DHT22;7462;53.530;9.414;2023-06-04T11:37:33;29.00;83.10
14741;DHT22;7462;53.530;9.414;2023-06-04T11:40:02;29.30;82.80
14741;DHT22;7462;53.530;9.414;2023-06-04T11:42:32;29.50;82.30
14741;DHT22;7462;53.530;9.414;2023-06-04T11:45:03;29.50;79.20
14741;DHT22;7462;53.530;9.414;2023-06-04T11:47:31;29.10;79.00
14741;DHT22;7462;53.530;9.414;2023-06-04T11:49:59;28.80;81.30
14741;DHT22;7462;53.530;9.414;2023-06-04T11:52:28;29.00;80.30
14741;DHT22;7462;53.530;9.414;2023-06-04T11:54:57;28.70;79.70
14741;DHT22;7462;53.530;9.414;2023-06-04T11:57:28;28.80;82.00
14741;DHT22;7462;53.530;9.414;2023-06-04T11:59:57;28.50;79.10
14741;DHT22;7462;53.530;9.414;2023-06-04T12:02:25;28.30;80.70
14741;DHT22;7462;53.530;9.414;2023-06-04T12:04:53;27.90;83.20
14741;DHT22;7462;53.530;9.414;2023-06-04T12:07:22;27.60;82.30
14741;DHT22;7462;53.530;9.414;2023-06-04T12:09:51;27.40;84.00
14741;DHT22;7462;53.530;9.414;2023-06-04T12:12:22;27.20;84.20
14741;DHT22;7462;53.530;9.414;2023-06-04T12:14:57;26.50;87.80
14741;DHT22;7462;53.530;9.414;2023-06-04T12:17:26;26.10;87.90
14741;DHT22;7462;53.530;9.414;2023-06-04T12:19:54;26.10;87.60
14741;DHT22;7462;53.530;9.414;2023-06-04T12:22:24;26.10;88.30
14741;DHT22;7462;53.530;9.414;2023-06-04T12:24:54;26.30;88.10
14741;DHT22;7462;53.530;9.414;2023-06-04T12:27:25;26.20;87.10
14741;DHT22;7462;53.530;9.414;2023-06-04T12:29:57;26.00;87.30
14741;DHT22;7462;53.530;9.414;2023-06-04T12:32:26;25.90;89.40
14741;DHT22;7462;53.530;9.414;2023-06-04T12:34:55;26.00;89.90
14741;DHT22;7462;53.530;9.414;2023-06-04T12:37:25;26.10;89.90
14741;DHT22;7462;53.530;9.414;2023-06-04T12:39:56;25.90;90.10
14741;DHT22;7462;53.530;9.414;2023-06-04T12:42:26;25.40;90.40
14741;DHT22;7462;53.530;9.414;2023-06-04T12:44:54;25.50;90.70
14741;DHT22;7462;53.530;9.414;2023-06-04T12:47:23;25.20;88.90
14741;DHT22;7462;53.530;9.414;2023-06-04T12:49:51;25.00;91.60
14741;DHT22;7462;53.530;9.414;2023-06-04T12:52:19;25.10;92.20
14741;DHT22;7462;53.530;9.414;2023-06-04T12:54:47;25.00;92.10
14741;DHT22;7462;53.530;9.414;2023-06-04T12:57:15;25.00;92.20
14741;DHT22;7462;53.530;9.414;2023-06-04T12:59:45;24.60;92.70
14741;DHT22;7462;53.530;9.414;2023-06-04T13:02:13;24.50;93.70
14741;DHT22;7462;53.530;9.414;2023-06-04T13:04:41;24.50;93.40
14741;DHT22;7462;53.530;9.414;2023-06-04T13:07:11;24.30;93.90
14741;DHT22;7462;53.530;9.414;2023-06-04T13:09:39;24.20;94.10
14741;DHT22;7462;53.530;9.414;2023-06-04T13:12:08;24.20;95.10
14741;DHT22;7462;53.530;9.414;2023-06-04T13:14:36;23.70;94.10
14741;DHT22;7462;53.530;9.414;2023-06-04T13:17:05;23.70;95.30
14741;DHT22;7462;53.530;9.414;2023-06-04T13:19:48;24.00;95.10
14741;DHT22;7462;53.530;9.414;2023-06-04T13:22:16;23.90;95.30
14741;DHT22;7462;53.530;9.414;2023-06-04T13:24:45;23.90;95.80
14741;DHT22;7462;53.530;9.414;2023-06-04T13:27:13;23.70;95.60
14741;DHT22;7462;53.530;9.414;2023-06-04T13:29:41;23.40;96.40
14741;DHT22;7462;53.530;9.414;2023-06-04T13:32:12;23.30;96.20
14741;DHT22;7462;53.530;9.414;2023-06-04T13:34:40;23.20;97.00
14741;DHT22;7462;53.530;9.414;2023-06-04T13:37:08;23.20;97.40
14741;DHT22;7462;53.530;9.414;2023-06-04T13:39:38;23.30;97.90
14741;DHT22;7462;53.530;9.414;2023-06-04T13:42:07;23.00;98.00
14741;DHT22;7462;53.530;9.414;2023-06-04T13:44:37;22.90;98.20
14741;DHT22;7462;53.530;9.414;2023-06-04T13:47:05;22.70;99.60
14741;DHT22;7462;53.530;9.414;2023-06-04T13:49:38;22.50;98.50
14741;DHT22;7462;53.530;9.414;2023-06-04T13:52:07;22.50;99.30
14741;DHT22;7462;53.530;9.414;2023-06-04T13:54:35;22.30;98.90
14741;DHT22;7462;53.530;9.414;2023-06-04T13:57:04;22.10;99.90
14741;DHT22;7462;53.530;9.414;2023-06-04T13:59:33;21.80;99.90
14741;DHT22;7462;53.530;9.414;2023-06-04T14:02:01;21.80;99.90
14741;DHT22;7462;53.530;9.414;2023-06-04T14:04:30;21.80;99.90
14741;DHT22;7462;53.530;9.414;2023-06-04T14:06:59;21.70;99.80
14741;DHT22;7462;53.530;9.414;2023-06-04T14:09:27;21.70;99.90
14741;DHT22;7462;53.530;9.414;2023-06-04T14:11:55;21.80;99.90
14741;DHT22;7462;53.530;9.414;2023-06-04T14:14:24;21.60;99.90
14741;DHT22;7462;53.530;9.414;2023-06-04T14:16:52;21.60;99.90
14741;DHT22;7462;53.530;9.414;2023-06-04T14:19:24;21.70;99.90
14741;DHT22;7462;53.530;9.414;2023-06-04T14:21:54;21.40;99.90
14741;DHT22;7462;53.530;9.414;2023-06-04T14:24:24;21.20;99.90
14741;DHT22;7462;53.530;9.414;2023-06-04T14:26:52;21.20;99.90
14741;DHT22;7462;53.530;9.414;2023-06-04T14:29:20;21.20;99.90
14741;DHT22;7462;53.530;9.414;2023-06-04T14:31:48;21.20;99.90
14741;DHT22;7462;53.530;9.414;2023-06-04T14:34:16;21.10;99.90
14741;DHT22;7462;53.530;9.414;2023-06-04T14:36:45;21.00;99.90
14741;DHT22;7462;53.530;9.414;2023-06-04T14:39:14;20.70;99.90
14741;DHT22;7462;53.530;9.414;2023-06-04T14:41:46;20.80;99.90
14741;DHT22;7462;53.530;9.414;2023-06-04T14:44:16;20.90;99.90
14741;DHT22;7462;53.530;9.414;2023-06-04T14:46:44;20.80;99.90
14741;DHT22;7462;53.530;9.414;2023-06-04T14:49:12;20.80;99.90
14741;DHT22;7462;53.530;9.414;2023-06-04T14:51:40;20.60;99.90
14741;DHT22;7462;53.530;9.414;2023-06-04T14:54:08;20.40;99.90
14741;DHT22;7462;53.530;9.414;2023-06-04T14:56:36;20.30;99.90
14741;DHT22;7462;53.530;9.414;2023-06-04T14:59:09;20.30;99.90
14741;DHT22;7462;53.530;9.414;2023-06-04T15:01:39;20.20;99.90
14741;DHT22;7462;53.530;9.414;2023-06-04T15:04:08;20.20;99.90
14741;DHT22;7462;53.530;9.414;2023-06-04T15:06:36;20.20;99.90
14741;DHT22;7462;53.530;9.414;2023-06-04T15:09:04;20.30;99.90
14741;DHT22;7462;53.530;9.414;2023-06-04T15:11:33;20.20;99.90
14741;DHT22;7462;53.530;9.414;2023-06-04T15:14:01;20.10;99.90
14741;DHT22;7462;53.530;9.414;2023-06-04T15:16:31;20.00;99.90
14741;DHT22;7462;53.530;9.414;2023-06-04T15:19:00;19.90;99.90
14741;DHT22;7462;53.530;9.414;2023-06-04T15:21:28;19.80;99.90
14741;DHT22;7462;53.530;9.414;2023-06-04T15:23:56;19.70;99.90
14741;DHT22;7462;53.530;9.414;2023-06-04T15:26:25;19.70;99.90
14741;DHT22;7462;53.530;9.414;2023-06-04T15:28:53;19.70;99.90
14741;DHT22;7462;53.530;9.414;2023-06-04T15:31:23;19.60;99.90
14741;DHT22;7462;53.530;9.414;2023-06-04T15:33:55;19.60;99.90
14741;DHT22;7462;53.530;9.414;2023-06-04T15:36:23;19.60;99.90
14741;DHT22;7462;53.530;9.414;2023-06-04T15:38:51;19.40;99.90
14741;DHT22;7462;53.530;9.414;2023-06-04T15:41:19;19.40;99.90
14741;DHT22;7462;53.530;9.414;2023-06-04T15:43:48;19.40;99.90
14741;DHT22;7462;53.530;9.414;2023-06-04T15:46:17;19.40;99.90
14741;DHT22;7462;53.530;9.414;2023-06-04T15:48:45;19.40;99.90
14741;DHT22;7462;53.530;9.414;2023-06-04T15:51:14;19.30;99.90
14741;DHT22;7462;53.530;9.414;2023-06-04T15:53:43;19.30;99.90
14741;DHT22;7462;53.530;9.414;2023-06-04T15:56:11;19.30;99.90
14741;DHT22;7462;53.530;9.414;2023-06-04T15:58:40;19.20;99.90